Greenisland, United Kingdom
Current Conditions -  °F | °C
As of 9:50 PM on Thursday 20 Nov 2014 (Local Time) from EGAC Reporting Station
Broken Clouds Broken Clouds  
Wind Chill: 50°   Ceiling: 3300
Heat Index: 50°   Visibility: 6mi
Dew Point: 46°   Wind: 10mph
Humidity: 87%   Direction: 120°ESE
Pressure: 30.21"   Gusts: NA
Location:  54.7°N, 5.87°W
Report Text: EGAC 202150Z 12009KT 9999 9000W FEW011 SCT027 BKN033 10/08 Q1023
Loading
Personal Weather Stations






























Interactive Weather Map New forecast layout! Learn more

10-Day Weather Forecast

Advertisements
Track Severe Weather on mobile